createdAt,value
2019-02-04T00:00:57.784Z,9.00
2019-02-04T00:03:29.111Z,8.47
2019-02-04T00:05:59.468Z,10.67
2019-02-04T00:08:31.831Z,9.37
2019-02-04T00:11:02.584Z,9.60
2019-02-04T00:13:33.204Z,9.53
2019-02-04T00:16:04.051Z,9.30
2019-02-04T00:18:35.524Z,10.03
2019-02-04T00:21:18.112Z,10.17
2019-02-04T00:23:48.933Z,10.77
2019-02-04T00:26:20.145Z,9.40
2019-02-04T00:28:51.825Z,9.87
2019-02-04T00:31:22.842Z,9.93
2019-02-04T00:33:53.616Z,10.33
2019-02-04T00:36:38.618Z,9.63
2019-02-04T00:39:11.360Z,8.77
2019-02-04T00:42:06.483Z,9.83
2019-02-04T00:44:37.842Z,10.40
2019-02-04T00:47:08.246Z,10.50
2019-02-04T00:49:39.639Z,10.57
2019-02-04T00:52:10.247Z,9.27
2019-02-04T00:54:41.654Z,10.20
2019-02-04T00:57:12.407Z,10.23
2019-02-04T00:59:43.736Z,9.77
2019-02-04T01:02:14.543Z,9.63
2019-02-04T01:04:45.382Z,10.33
2019-02-04T01:07:16.396Z,9.67
2019-02-04T01:09:47.422Z,9.10
2019-02-04T01:12:17.813Z,8.77
2019-02-04T01:14:49.320Z,11.37
2019-02-04T01:17:19.647Z,9.30
2019-02-04T01:19:51.092Z,10.53
2019-02-04T01:22:22.090Z,9.30
2019-02-04T01:24:53.028Z,9.07
2019-02-04T01:27:24.190Z,9.03
2019-02-04T01:29:54.912Z,9.60
2019-02-04T01:32:25.870Z,9.23
2019-02-04T01:34:56.666Z,8.87
2019-02-04T01:37:27.707Z,8.90
2019-02-04T01:39:59.392Z,10.00
2019-02-04T01:42:30.733Z,9.67
2019-02-04T01:45:02.010Z,9.43
2019-02-04T01:47:32.622Z,8.73
2019-02-04T01:50:03.769Z,8.50
2019-02-04T01:52:35.133Z,9.97
2019-02-04T01:55:07.544Z,8.60
2019-02-04T01:57:38.240Z,8.97
2019-02-04T02:00:20.749Z,9.73
2019-02-04T03:02:05.747Z,11.87
2019-02-04T03:04:36.834Z,11.67
2019-02-04T03:07:07.792Z,11.00
2019-02-04T03:09:38.561Z,11.70
2019-02-04T03:12:10.399Z,10.73
2019-02-04T03:14:42.030Z,8.50
2019-02-04T03:17:13.053Z,10.03
2019-02-04T03:19:48.932Z,9.43
2019-02-04T03:22:21.118Z,8.63
2019-02-04T03:24:52.128Z,8.10
2019-02-04T03:27:23.229Z,8.70
2019-02-04T03:29:54.595Z,9.07
2019-02-04T03:32:25.222Z,7.87
2019-02-04T03:34:56.964Z,8.97
2019-02-04T03:37:27.272Z,7.50
2019-02-04T03:39:59.478Z,7.83
2019-02-04T03:42:30.488Z,8.30
2019-02-04T03:45:01.189Z,8.97
2019-02-04T03:47:32.500Z,9.00
2019-02-04T03:50:03.573Z,9.90
2019-02-04T03:52:34.614Z,8.10
2019-02-04T03:55:05.597Z,8.70
2019-02-04T03:57:36.590Z,9.23
2019-02-04T04:00:14.015Z,8.03
2019-02-04T04:02:45.436Z,7.67
2019-02-04T04:05:16.452Z,8.20
2019-02-04T04:07:47.391Z,8.07
2019-02-04T04:10:18.671Z,9.10
2019-02-04T04:12:49.796Z,9.37
2019-02-04T04:15:20.714Z,8.83
2019-02-04T04:17:51.558Z,9.17
2019-02-04T04:20:23.268Z,8.80
2019-02-04T04:22:54.817Z,8.30
2019-02-04T04:25:25.947Z,8.87
2019-02-04T04:27:57.238Z,8.70
2019-02-04T04:30:28.607Z,8.63
2019-02-04T04:32:59.892Z,9.10
2019-02-04T04:35:31.171Z,8.73
2019-02-04T04:38:02.131Z,9.30
2019-02-04T04:40:33.524Z,10.77
2019-02-04T04:43:04.958Z,10.70
2019-02-04T04:45:37.412Z,10.30
2019-02-04T04:48:09.070Z,11.87
2019-02-04T04:50:40.405Z,11.93
2019-02-04T04:53:11.434Z,11.97
2019-02-04T04:55:42.094Z,12.33
2019-02-04T04:58:12.854Z,12.90
2019-02-04T05:00:43.647Z,12.37
2019-02-04T05:03:14.355Z,14.10
2019-02-04T05:05:45.345Z,11.70
2019-02-04T05:08:16.087Z,11.53
2019-02-04T05:10:47.221Z,13.53
2019-02-04T05:13:18.618Z,13.53
2019-02-04T05:15:56.070Z,12.53
2019-02-04T05:18:37.471Z,11.00
2019-02-04T05:20:59.505Z,12.10
2019-02-04T05:23:30.321Z,12.60
2019-02-04T05:26:00.972Z,10.60
2019-02-04T05:28:32.744Z,10.63
2019-02-04T05:31:04.815Z,10.80
2019-02-04T05:33:36.480Z,10.37
2019-02-04T05:36:07.154Z,10.23
2019-02-04T05:38:37.868Z,10.70
2019-02-04T05:41:08.881Z,11.63
2019-02-04T05:43:39.510Z,12.63
2019-02-04T05:46:27.548Z,11.50
2019-02-04T05:48:58.631Z,15.70
2019-02-04T05:51:29.968Z,11.03
2019-02-04T05:54:06.041Z,9.60
2019-02-04T05:56:37.507Z,8.40
2019-02-04T05:59:08.107Z,9.50
2019-02-04T06:01:39.319Z,10.30
2019-02-04T06:04:25.666Z,9.70
2019-02-04T06:06:57.573Z,11.13
2019-02-04T06:09:28.625Z,9.27
2019-02-04T06:11:59.637Z,8.83
2019-02-04T06:14:30.389Z,7.40
2019-02-04T06:17:39.275Z,10.00
2019-02-04T06:20:13.793Z,9.77
2019-02-04T06:22:45.245Z,9.27
2019-02-04T06:25:16.118Z,9.10
2019-02-04T06:27:46.938Z,8.63
2019-02-04T06:30:17.945Z,9.30
2019-02-04T06:32:49.399Z,8.70
2019-02-04T06:35:21.590Z,8.87
2019-02-04T06:37:52.473Z,8.67
2019-02-04T06:40:23.473Z,10.67
2019-02-04T06:42:55.199Z,8.67
2019-02-04T06:45:25.985Z,9.57
2019-02-04T06:47:57.300Z,10.73
2019-02-04T06:50:28.524Z,11.90
2019-02-04T06:52:59.589Z,9.90
2019-02-04T06:55:33.435Z,8.97
2019-02-04T06:58:05.030Z,8.83
2019-02-04T07:00:35.648Z,9.40
2019-02-04T07:03:06.585Z,11.63
2019-02-04T07:05:43.973Z,9.43
2019-02-04T07:08:10.318Z,9.87
2019-02-04T07:10:45.279Z,10.47
2019-02-04T07:13:15.920Z,9.67
2019-02-04T07:15:46.939Z,9.80
2019-02-04T07:18:18.490Z,9.80
2019-02-04T07:20:49.862Z,9.63
2019-02-04T07:23:20.861Z,9.40
2019-02-04T07:25:51.186Z,10.50
2019-02-04T07:28:22.430Z,9.07
2019-02-04T07:30:52.752Z,9.37
2019-02-04T07:33:24.511Z,8.93
2019-02-04T07:35:55.160Z,11.00
2019-02-04T07:38:26.542Z,8.77
2019-02-04T07:40:57.169Z,9.90
2019-02-04T07:43:28.641Z,8.90
2019-02-04T07:45:59.454Z,8.97
2019-02-04T07:48:29.796Z,9.80
2019-02-04T07:51:01.053Z,8.97
2019-02-04T07:53:31.380Z,9.30
2019-02-04T07:56:04.182Z,8.03
2019-02-04T07:58:35.225Z,6.80
2019-02-04T08:01:06.239Z,7.63
2019-02-04T08:03:36.567Z,7.10
2019-02-04T08:06:07.235Z,7.37
2019-02-04T08:08:38.263Z,8.60
2019-02-04T08:11:08.643Z,9.70
2019-02-04T08:13:40.002Z,8.67
2019-02-04T08:16:13.333Z,9.60
2019-02-04T08:18:46.162Z,9.60
2019-02-04T08:21:17.274Z,10.97
2019-02-04T08:23:48.322Z,8.20
2019-02-04T08:26:20.056Z,8.87
2019-02-04T08:28:51.334Z,10.07
2019-02-04T08:31:23.180Z,10.20
2019-02-04T08:33:54.622Z,9.30
2019-02-04T08:36:27.204Z,8.77
2019-02-04T08:38:58.388Z,7.70
2019-02-04T08:41:29.869Z,7.43
2019-02-04T08:44:00.928Z,8.17
2019-02-04T08:46:31.691Z,8.23
2019-02-04T08:49:02.870Z,8.67
2019-02-04T08:51:34.706Z,7.70
2019-02-04T08:54:05.925Z,7.87
2019-02-04T08:56:37.078Z,8.37
2019-02-04T08:59:08.957Z,8.67
2019-02-04T09:01:39.978Z,11.20
2019-02-04T09:04:10.673Z,8.40
2019-02-04T09:06:41.021Z,8.87
2019-02-04T09:09:13.536Z,8.23
2019-02-04T09:11:44.647Z,8.10
2019-02-04T09:14:16.105Z,7.97
2019-02-04T09:16:47.650Z,7.87
2019-02-04T09:19:18.066Z,7.40
2019-02-04T09:21:49.530Z,6.27
2019-02-04T09:24:20.834Z,7.83
2019-02-04T09:26:51.159Z,8.23
2019-02-04T09:29:22.586Z,7.97
2019-02-04T09:31:53.258Z,8.20
2019-02-04T09:34:23.907Z,7.50
2019-02-04T09:36:54.567Z,8.77
2019-02-04T09:39:26.827Z,7.90
2019-02-04T09:41:57.936Z,8.37
2019-02-04T09:44:28.981Z,8.93
2019-02-04T09:47:01.457Z,9.53
2019-02-04T09:49:32.899Z,9.33
2019-02-04T09:52:03.491Z,8.90
2019-02-04T09:54:34.201Z,7.77
2019-02-04T09:57:05.280Z,8.83
2019-02-04T09:59:35.939Z,8.63
2019-02-04T10:02:07.016Z,8.83
2019-02-04T10:04:39.355Z,9.37
2019-02-04T10:07:10.046Z,9.57
2019-02-04T10:09:40.999Z,9.83
2019-02-04T10:12:11.665Z,10.13
2019-02-04T10:14:42.728Z,10.67
2019-02-04T10:17:14.985Z,10.20
2019-02-04T10:19:48.132Z,10.13
2019-02-04T10:22:19.824Z,10.97
2019-02-04T10:24:51.175Z,10.70
2019-02-04T10:27:22.576Z,9.87
2019-02-04T10:29:56.077Z,9.80
2019-02-04T10:32:26.845Z,10.20
2019-02-04T10:34:58.327Z,10.10
2019-02-04T10:37:29.024Z,10.40
2019-02-04T10:40:00.272Z,10.60
2019-02-04T10:42:31.431Z,10.33
2019-02-04T10:45:02.195Z,10.47
2019-02-04T10:47:32.912Z,10.57
2019-02-04T10:50:03.754Z,10.80
2019-02-04T10:52:34.347Z,9.80
2019-02-04T10:55:06.274Z,11.33
2019-02-04T10:57:40.591Z,10.50
2019-02-04T11:00:14.112Z,11.07
2019-02-04T11:02:44.988Z,10.80
2019-02-04T11:05:20.210Z,10.63
2019-02-04T11:07:50.989Z,10.27
2019-02-04T11:10:25.047Z,9.73
2019-02-04T11:12:56.089Z,9.93
2019-02-04T11:15:27.442Z,9.67
2019-02-04T11:17:58.822Z,9.37
2019-02-04T11:20:31.529Z,9.97
2019-02-04T11:23:03.186Z,9.70
2019-02-04T11:25:33.932Z,9.93
2019-02-04T11:28:06.028Z,9.70
2019-02-04T11:31:11.503Z,9.53
2019-02-04T11:33:42.825Z,9.70
2019-02-04T11:36:14.018Z,8.83
2019-02-04T11:38:45.545Z,10.70
2019-02-04T11:41:16.180Z,9.67
2019-02-04T11:43:47.208Z,10.30
2019-02-04T11:46:18.468Z,10.03
2019-02-04T11:49:05.073Z,10.10
2019-02-04T11:51:36.343Z,10.47
2019-02-04T11:54:07.691Z,10.37
2019-02-04T11:56:38.767Z,9.83
2019-02-04T11:59:09.505Z,7.57
2019-02-04T12:01:40.445Z,8.53
2019-02-04T12:04:11.584Z,8.70
2019-02-04T12:06:42.323Z,9.43
2019-02-04T12:09:13.997Z,9.37
2019-02-04T12:11:44.613Z,8.10
2019-02-04T12:14:14.975Z,7.37
2019-02-04T12:16:45.678Z,6.97
2019-02-04T12:19:15.997Z,8.20
2019-02-04T12:21:47.419Z,8.40
2019-02-04T12:24:18.498Z,10.50
2019-02-04T12:26:49.919Z,8.50
2019-02-04T12:29:20.323Z,7.50
2019-02-04T12:31:51.295Z,7.33
2019-02-04T12:34:22.918Z,7.07
2019-02-04T12:37:01.077Z,6.17
2019-02-04T12:39:31.843Z,6.30
2019-02-04T12:42:02.824Z,7.10
2019-02-04T12:44:33.904Z,7.30
2019-02-04T12:47:43.609Z,8.20
2019-02-04T12:50:14.307Z,6.30
2019-02-04T12:52:44.908Z,6.73
2019-02-04T12:55:19.763Z,6.53
2019-02-04T12:57:51.083Z,6.47
2019-02-04T13:00:25.419Z,6.70
2019-02-04T13:02:56.091Z,6.73
2019-02-04T13:05:36.565Z,6.47
2019-02-04T13:08:09.600Z,5.90
2019-02-04T13:10:41.536Z,6.50
2019-02-04T13:13:15.552Z,7.07
2019-02-04T13:15:46.973Z,7.23
2019-02-04T13:18:18.320Z,7.03
2019-02-04T13:20:52.811Z,6.87
2019-02-04T13:23:24.299Z,7.17
2019-02-04T13:25:56.578Z,7.87
2019-02-04T13:28:28.338Z,7.43
2019-02-04T13:31:06.341Z,6.63
2019-02-04T13:33:37.262Z,6.87
2019-02-04T13:36:07.883Z,6.73
2019-02-04T13:38:38.926Z,7.73
2019-02-04T13:41:11.175Z,7.33
2019-02-04T13:43:42.316Z,6.73
2019-02-04T13:46:13.271Z,7.10
2019-02-04T13:48:44.209Z,6.70
2019-02-04T13:51:15.261Z,6.60
2019-02-04T13:53:46.514Z,6.23
2019-02-04T13:56:17.770Z,6.53
2019-02-04T13:58:48.228Z,6.57
2019-02-04T14:01:21.144Z,6.63
2019-02-04T14:03:52.726Z,6.27
2019-02-04T14:06:23.784Z,6.30
2019-02-04T14:08:55.421Z,5.90
2019-02-04T14:11:26.176Z,7.10
2019-02-04T14:13:56.984Z,5.83
2019-02-04T14:16:27.957Z,6.23
2019-02-04T14:18:58.687Z,6.33
2019-02-04T14:21:29.824Z,6.33
2019-02-04T14:24:00.723Z,7.73
2019-02-04T14:27:08.782Z,7.27
2019-02-04T14:29:39.841Z,6.67
2019-02-04T14:32:11.267Z,6.57
2019-02-04T14:34:42.599Z,7.10
2019-02-04T14:37:13.495Z,6.60
2019-02-04T14:39:44.551Z,6.40
2019-02-04T14:42:18.441Z,6.93
2019-02-04T14:45:34.572Z,7.60
2019-02-04T14:49:05.609Z,7.57
2019-02-04T14:52:30.546Z,7.07
2019-02-04T14:55:59.522Z,7.90
2019-02-04T14:59:24.333Z,7.70
2019-02-04T15:03:00.905Z,7.60
2019-02-04T15:06:28.571Z,7.37
2019-02-04T15:09:40.977Z,7.77
2019-02-04T15:13:08.503Z,6.67
2019-02-04T15:16:40.633Z,7.50
2019-02-04T15:20:25.496Z,7.20
2019-02-04T15:23:32.168Z,7.17
2019-02-04T15:27:09.285Z,7.90
2019-02-04T15:30:47.019Z,7.53
2019-02-04T15:34:32.792Z,7.27
2019-02-04T15:37:31.185Z,8.17
2019-02-04T15:40:26.349Z,7.23
2019-02-04T15:43:39.673Z,7.03
2019-02-04T15:46:58.264Z,9.27
2019-02-04T15:50:19.295Z,11.97
2019-02-04T15:52:50.018Z,8.77
2019-02-04T15:55:23.490Z,8.47
2019-02-04T15:57:55.259Z,7.57
2019-02-04T16:00:31.579Z,7.50
2019-02-04T16:03:03.050Z,9.67
2019-02-04T16:05:35.540Z,8.57
2019-02-04T16:08:06.637Z,7.77
2019-02-04T16:10:39.025Z,7.43
2019-02-04T16:13:09.725Z,7.87
2019-02-04T16:15:50.417Z,7.23
2019-02-04T16:18:21.532Z,7.07
2019-02-04T16:20:52.824Z,7.23
2019-02-04T16:23:32.460Z,8.63
2019-02-04T16:26:03.910Z,7.73
2019-02-04T16:28:34.969Z,7.53
2019-02-04T16:31:06.248Z,7.47
2019-02-04T16:33:36.878Z,7.17
2019-02-04T16:36:08.184Z,8.10
2019-02-04T16:38:39.634Z,7.60
2019-02-04T16:41:10.013Z,8.10
2019-02-04T16:43:41.997Z,7.77
2019-02-04T16:46:12.905Z,7.80
2019-02-04T16:48:43.889Z,7.50
2019-02-04T16:51:14.938Z,7.10
2019-02-04T16:53:46.437Z,7.73
2019-02-04T16:56:18.796Z,8.20
2019-02-04T16:58:49.822Z,6.77
2019-02-04T17:01:32.761Z,8.40
2019-02-04T17:04:03.836Z,6.97
2019-02-04T17:06:34.837Z,8.10
2019-02-04T17:09:08.558Z,8.23
2019-02-04T17:11:39.924Z,7.73
2019-02-04T17:14:11.230Z,7.40
2019-02-04T17:16:42.597Z,7.83
2019-02-04T17:19:12.900Z,7.97
2019-02-04T17:21:43.630Z,7.53
2019-02-04T17:24:14.666Z,8.00
2019-02-04T17:26:45.980Z,7.60
2019-02-04T17:29:17.224Z,8.07
2019-02-04T17:31:48.193Z,8.13
2019-02-04T17:34:19.290Z,8.10
2019-02-04T17:36:50.632Z,7.00
2019-02-04T17:39:21.725Z,9.07
2019-02-04T17:41:53.083Z,9.30
2019-02-04T17:44:24.454Z,8.40
2019-02-04T17:46:55.264Z,8.23
2019-02-04T17:49:25.569Z,9.47
2019-02-04T17:51:56.666Z,9.07
2019-02-04T17:54:27.953Z,8.97
2019-02-04T17:56:58.911Z,8.73
2019-02-04T17:59:30.054Z,8.77
2019-02-04T18:02:00.814Z,8.50
2019-02-04T18:04:32.303Z,7.47
2019-02-04T18:07:03.157Z,8.33
2019-02-04T18:09:33.812Z,7.83
2019-02-04T18:12:04.849Z,9.67
2019-02-04T18:14:36.216Z,9.77
2019-02-04T18:17:07.472Z,8.23
2019-02-04T18:19:38.468Z,8.07
2019-02-04T18:22:10.328Z,8.20
2019-02-04T18:24:41.381Z,9.37
2019-02-04T18:27:13.226Z,9.00
2019-02-04T18:29:44.090Z,10.03
2019-02-04T18:32:15.018Z,9.07
2019-02-04T18:34:47.581Z,8.63
2019-02-04T18:37:19.047Z,9.30
2019-02-04T18:39:50.036Z,7.37
2019-02-04T18:42:22.241Z,8.50
2019-02-04T18:44:53.746Z,9.00
2019-02-04T18:47:24.389Z,9.37
2019-02-04T18:49:55.435Z,9.17
2019-02-04T18:52:26.831Z,9.23
2019-02-04T18:54:58.186Z,8.47
2019-02-04T18:57:28.982Z,8.30
2019-02-04T18:59:59.345Z,9.37
2019-02-04T19:02:29.709Z,13.47
2019-02-04T19:05:00.688Z,11.07
2019-02-04T19:07:30.987Z,8.20
2019-02-04T19:10:02.120Z,8.60
2019-02-04T19:12:33.147Z,9.40
2019-02-04T19:15:04.558Z,9.30
2019-02-04T19:17:36.314Z,9.13
2019-02-04T19:20:10.819Z,9.60
2019-02-04T19:22:42.105Z,10.60
2019-02-04T19:25:13.255Z,9.97
2019-02-04T19:27:44.241Z,10.07
2019-02-04T19:30:46.126Z,9.87
2019-02-04T19:33:17.563Z,8.57
2019-02-04T19:35:49.717Z,10.00
2019-02-04T19:38:20.899Z,9.93
2019-02-04T19:40:51.963Z,10.00
2019-02-04T19:43:23.375Z,11.23
2019-02-04T19:45:54.118Z,11.00
2019-02-04T19:48:26.529Z,12.40
2019-02-04T19:50:58.287Z,14.73
2019-02-04T19:53:54.589Z,14.43
2019-02-04T19:56:25.431Z,11.77
2019-02-04T19:59:00.587Z,10.73
2019-02-04T20:01:50.644Z,10.10
2019-02-04T20:04:21.788Z,8.53
2019-02-04T20:06:57.562Z,9.73
2019-02-04T20:09:30.946Z,9.43
2019-02-04T20:12:02.391Z,9.93
2019-02-04T20:14:37.939Z,8.67
2019-02-04T20:17:08.271Z,9.87
2019-02-04T20:19:40.030Z,9.53
2019-02-04T20:22:16.457Z,9.80
2019-02-04T20:24:48.446Z,9.53
2019-02-04T20:27:21.182Z,9.80
2019-02-04T20:29:52.254Z,9.77
2019-02-04T20:32:32.636Z,9.90
2019-02-04T20:35:12.053Z,9.53
2019-02-04T20:37:45.675Z,9.13
2019-02-04T20:40:21.081Z,9.97
2019-02-04T20:42:55.540Z,8.90
2019-02-04T20:45:35.273Z,10.00
2019-02-04T20:48:17.481Z,8.77
2019-02-04T20:51:00.037Z,8.60
2019-02-04T20:53:37.107Z,8.77
2019-02-04T20:56:13.232Z,9.47
2019-02-04T20:58:50.089Z,9.87
2019-02-04T21:01:27.226Z,9.67
2019-02-04T21:03:59.921Z,9.43
2019-02-04T21:06:36.222Z,9.90
2019-02-04T21:09:11.416Z,10.17
2019-02-04T21:11:43.530Z,10.00
2019-02-04T21:14:14.461Z,9.40
2019-02-04T21:16:55.807Z,9.60
2019-02-04T21:19:44.295Z,9.50
2019-02-04T21:22:15.765Z,9.80
2019-02-04T21:24:56.301Z,9.67
2019-02-04T21:27:24.793Z,9.30
2019-02-04T21:29:57.613Z,9.53
2019-02-04T21:32:40.429Z,9.93
2019-02-04T21:35:15.556Z,9.67
2019-02-04T21:37:52.952Z,10.50
2019-02-04T21:40:27.478Z,11.27
2019-02-04T21:43:08.252Z,9.53
2019-02-04T21:45:44.481Z,11.13
2019-02-04T21:48:29.130Z,10.97
2019-02-04T21:51:04.782Z,10.93
2019-02-04T21:53:37.755Z,12.43
2019-02-04T21:56:09.322Z,11.77
2019-02-04T21:58:45.338Z,10.77
2019-02-04T22:01:24.038Z,10.33
2019-02-04T22:03:58.394Z,11.80
2019-02-04T22:06:36.203Z,13.30
2019-02-04T22:09:13.918Z,12.53
2019-02-04T22:11:45.462Z,12.20
2019-02-04T22:14:28.192Z,11.37
2019-02-04T22:17:06.192Z,12.63
2019-02-04T22:19:51.378Z,13.10
2019-02-04T22:22:31.515Z,12.00
2019-02-04T22:25:19.843Z,12.23
2019-02-04T22:27:53.164Z,11.63
2019-02-04T22:30:28.738Z,11.57
2019-02-04T22:33:10.184Z,11.27
2019-02-04T22:35:47.333Z,11.40
2019-02-04T22:38:21.261Z,11.57
2019-02-04T22:40:52.088Z,13.00
2019-02-04T22:43:24.965Z,11.90
2019-02-04T22:46:02.500Z,12.60
2019-02-04T22:48:36.061Z,12.10
2019-02-04T22:51:09.020Z,11.27
2019-02-04T22:53:40.474Z,12.60
2019-02-04T22:56:12.399Z,12.33
2019-02-04T22:58:43.817Z,12.57
2019-02-04T23:01:47.305Z,12.30
2019-02-04T23:04:18.363Z,12.93
2019-02-04T23:06:49.984Z,12.50
2019-02-04T23:09:21.132Z,12.20
2019-02-04T23:11:52.200Z,13.10
2019-02-04T23:14:24.054Z,13.33
2019-02-04T23:17:12.750Z,12.73
2019-02-04T23:20:00.509Z,12.37
2019-02-04T23:22:32.905Z,10.97
2019-02-04T23:25:04.000Z,12.20
2019-02-04T23:27:35.168Z,11.50
2019-02-04T23:30:11.392Z,11.10
2019-02-04T23:32:44.183Z,10.37
2019-02-04T23:35:16.119Z,10.27
2019-02-04T23:38:04.859Z,10.07
2019-02-04T23:40:35.632Z,11.43
2019-02-04T23:43:06.894Z,11.20
2019-02-04T23:45:37.924Z,11.53
2019-02-04T23:48:10.706Z,12.03
2019-02-04T23:50:41.602Z,12.67
2019-02-04T23:53:12.375Z,10.90
2019-02-04T23:55:54.407Z,12.40
2019-02-04T23:58:16.909Z,12.00
